createdAt,value
2023-04-10T00:00:01.680Z,99574.09
2023-04-10T00:02:29.150Z,99579.63
2023-04-10T00:04:56.296Z,99580.38
2023-04-10T00:07:23.335Z,99573.19
2023-04-10T00:09:50.304Z,99576.84
2023-04-10T00:12:17.626Z,99560.84
2023-04-10T00:14:44.551Z,99570.66
2023-04-10T00:17:11.588Z,99572.50
2023-04-10T00:19:38.348Z,99568.19
2023-04-10T00:22:05.953Z,99567.97
2023-04-10T00:24:32.656Z,99565.38
2023-04-10T00:26:59.781Z,99568.28
2023-04-10T00:29:26.615Z,99569.41
2023-04-10T00:31:53.816Z,99566.72
2023-04-10T00:34:20.776Z,99565.09
2023-04-10T00:36:47.879Z,99563.44
2023-04-10T00:39:14.672Z,99563.06
2023-04-10T00:41:41.736Z,99559.97
2023-04-10T00:44:08.927Z,99559.03
2023-04-10T00:46:37.544Z,99558.63
2023-04-10T00:49:04.379Z,99559.69
2023-04-10T00:51:31.411Z,99559.88
2023-04-10T00:53:58.128Z,99564.50
2023-04-10T00:56:25.520Z,99567.00
2023-04-10T00:58:52.288Z,99563.53
2023-04-10T01:01:19.457Z,99559.22
2023-04-10T01:03:46.303Z,99559.31
2023-04-10T01:06:35.334Z,99558.31
2023-04-10T01:09:29.640Z,99556.53
2023-04-10T01:11:56.677Z,99559.22
2023-04-10T01:14:36.540Z,99557.09
2023-04-10T01:17:13.975Z,99564.69
2023-04-10T01:20:22.481Z,99557.19
2023-04-10T01:23:04.639Z,99560.25
2023-04-10T01:25:41.398Z,99554.97
2023-04-10T01:28:23.619Z,99554.69
2023-04-10T01:30:55.955Z,99564.50
2023-04-10T01:33:23.161Z,99570.09
2023-04-10T01:35:52.507Z,99560.06
2023-04-10T01:38:20.733Z,99558.25
2023-04-10T01:40:51.381Z,99569.81
2023-04-10T01:43:18.426Z,99569.91
2023-04-10T01:45:45.242Z,99574.41
2023-04-10T01:48:12.353Z,99575.56
2023-04-10T01:50:39.139Z,99576.41
2023-04-10T01:53:06.322Z,99570.94
2023-04-10T01:55:33.514Z,99568.53
2023-04-10T01:58:00.964Z,99566.13
2023-04-10T02:00:28.180Z,99562.19
2023-04-10T02:02:55.531Z,99570.19
2023-04-10T02:05:23.142Z,99576.81
2023-04-10T02:07:52.471Z,99574.22
2023-04-10T02:10:24.956Z,99570.19
2023-04-10T02:13:01.001Z,99573.81
2023-04-10T02:15:28.617Z,99570.09
2023-04-10T02:17:55.702Z,99570.53
2023-04-10T02:20:23.045Z,99572.19
2023-04-10T02:22:50.745Z,99566.63
2023-04-10T02:25:17.561Z,99555.84
2023-04-10T02:27:44.958Z,99562.00
2023-04-10T02:30:11.839Z,99568.25
2023-04-10T02:32:38.968Z,99564.03
2023-04-10T02:35:05.889Z,99564.97
2023-04-10T02:37:33.283Z,99573.91
2023-04-10T02:40:00.213Z,99572.47
2023-04-10T02:42:27.375Z,99572.28
2023-04-10T02:44:54.147Z,99576.31
2023-04-10T02:47:21.241Z,99569.59
2023-04-10T02:49:48.379Z,99570.34
2023-04-10T02:52:16.523Z,99570.44
2023-04-10T02:54:43.447Z,99578.81
2023-04-10T02:57:10.922Z,99576.31
2023-04-10T02:59:37.817Z,99581.41
2023-04-10T03:02:05.028Z,99575.06
2023-04-10T03:04:32.574Z,99577.00
2023-04-10T03:06:59.611Z,99576.09
2023-04-10T03:09:26.564Z,99579.78
2023-04-10T03:11:53.588Z,99576.19
2023-04-10T03:14:20.409Z,99578.03
2023-04-10T03:16:47.979Z,99584.50
2023-04-10T03:19:14.773Z,99573.31
2023-04-10T03:21:42.275Z,99557.25
2023-04-10T03:24:09.022Z,99561.88
2023-04-10T03:26:36.076Z,99556.69
2023-04-10T03:29:02.892Z,99550.34
2023-04-10T03:31:29.971Z,99557.66
2023-04-10T03:33:57.188Z,99555.53
2023-04-10T03:36:24.388Z,99549.97
2023-04-10T03:38:52.841Z,99552.84
2023-04-10T03:41:19.996Z,99548.22
2023-04-10T03:43:46.735Z,99548.69
2023-04-10T03:46:13.829Z,99552.38
2023-04-10T03:48:41.292Z,99559.28
2023-04-10T03:51:08.501Z,99555.72
2023-04-10T03:53:36.431Z,99553.91
2023-04-10T03:56:03.883Z,99561.78
2023-04-10T03:58:30.716Z,99558.59
2023-04-10T04:00:57.788Z,99565.56
2023-04-10T04:03:24.796Z,99568.13
2023-04-10T04:05:52.430Z,99572.66
2023-04-10T04:08:19.216Z,99563.91
2023-04-10T04:10:46.273Z,99566.78
2023-04-10T04:13:13.029Z,99568.53
2023-04-10T04:15:40.301Z,99577.28
2023-04-10T04:18:07.088Z,99585.44
2023-04-10T04:20:34.182Z,99579.09
2023-04-10T04:23:01.063Z,99578.41
2023-04-10T04:25:28.078Z,99578.31
2023-04-10T04:27:54.805Z,99575.53
2023-04-10T04:30:21.963Z,99575.44
2023-04-10T04:32:48.770Z,99574.94
2023-04-10T04:35:15.959Z,99585.63
2023-04-10T04:37:42.758Z,99584.50
2023-04-10T04:40:10.388Z,99581.00
2023-04-10T04:42:37.421Z,99573.00
2023-04-10T04:45:04.987Z,99583.69
2023-04-10T04:47:31.765Z,99581.22
2023-04-10T04:49:58.790Z,99573.81
2023-04-10T04:52:25.720Z,99582.75
2023-04-10T04:54:52.772Z,99580.06
2023-04-10T04:57:19.537Z,99581.09
2023-04-10T04:59:46.601Z,99586.47
2023-04-10T05:02:13.476Z,99582.66
2023-04-10T05:04:40.774Z,99589.06
2023-04-10T05:07:07.566Z,99582.75
2023-04-10T05:09:34.666Z,99592.66
2023-04-10T05:12:01.536Z,99596.13
2023-04-10T05:14:28.580Z,99601.50
2023-04-10T05:16:55.318Z,99608.91
2023-04-10T05:19:22.495Z,99614.97
2023-04-10T05:21:49.346Z,99612.84
2023-04-10T05:24:16.402Z,99621.03
2023-04-10T05:26:43.178Z,99623.03
2023-04-10T05:29:10.321Z,99623.13
2023-04-10T05:31:37.127Z,99616.50
2023-04-10T05:34:04.214Z,99621.59
2023-04-10T05:36:32.224Z,99610.75
2023-04-10T05:38:59.290Z,99616.50
2023-04-10T05:41:26.048Z,99612.09
2023-04-10T05:43:53.149Z,99618.34
2023-04-10T05:46:19.969Z,99620.16
2023-04-10T05:48:47.086Z,99615.72
2023-04-10T05:51:13.886Z,99615.81
2023-04-10T05:53:40.923Z,99619.09
2023-04-10T05:56:08.162Z,99612.09
2023-04-10T05:58:35.211Z,99608.50
2023-04-10T06:01:01.950Z,99611.09
2023-04-10T06:03:30.882Z,99610.06
2023-04-10T06:05:58.427Z,99607.47
2023-04-10T06:08:25.683Z,99618.06
2023-04-10T06:10:52.468Z,99620.66
2023-04-10T06:13:19.585Z,99621.53
2023-04-10T06:15:46.356Z,99622.28
2023-04-10T06:18:13.689Z,99626.72
2023-04-10T06:20:40.420Z,99639.44
2023-04-10T06:23:07.547Z,99636.63
2023-04-10T06:25:34.364Z,99631.25
2023-04-10T06:28:01.478Z,99629.31
2023-04-10T06:30:28.373Z,99635.31
2023-04-10T06:32:55.711Z,99623.84
2023-04-10T06:35:22.743Z,99630.19
2023-04-10T06:37:49.808Z,99638.09
2023-04-10T06:40:16.652Z,99634.53
2023-04-10T06:42:43.777Z,99634.53
2023-04-10T06:45:10.844Z,99630.84
2023-04-10T06:47:37.935Z,99641.34
2023-04-10T06:50:05.388Z,99642.31
2023-04-10T06:52:32.809Z,99639.53
2023-04-10T06:54:59.839Z,99647.81
2023-04-10T06:57:27.004Z,99648.19
2023-04-10T06:59:53.856Z,99641.59
2023-04-10T07:02:21.397Z,99645.03
2023-04-10T07:04:48.321Z,99649.66
2023-04-10T07:07:16.036Z,99646.28
2023-04-10T07:09:43.804Z,99651.59
2023-04-10T07:12:11.032Z,99654.16
2023-04-10T07:14:37.786Z,99644.47
2023-04-10T07:17:04.925Z,99636.97
2023-04-10T07:19:31.737Z,99635.63
2023-04-10T07:21:59.424Z,99628.34
2023-04-10T07:24:26.418Z,99630.84
2023-04-10T07:26:53.605Z,99628.94
2023-04-10T07:29:20.784Z,99636.22
2023-04-10T07:31:48.007Z,99632.56
2023-04-10T07:34:14.988Z,99642.28
2023-04-10T07:36:42.064Z,99635.00
2023-04-10T07:39:08.803Z,99645.69
2023-04-10T07:41:35.966Z,99635.56
2023-04-10T07:44:02.752Z,99630.19
2023-04-10T07:46:29.823Z,99635.56
2023-04-10T07:48:56.784Z,99633.63
2023-04-10T07:51:23.984Z,99633.63
2023-04-10T07:53:50.747Z,99630.09
2023-04-10T07:56:18.504Z,99631.53
2023-04-10T07:58:45.993Z,99632.47
2023-04-10T08:01:13.289Z,99627.56
2023-04-10T08:03:44.632Z,99629.22
2023-04-10T08:06:11.982Z,99634.50
2023-04-10T08:08:39.574Z,99621.78
2023-04-10T08:11:08.311Z,99623.03
2023-04-10T08:13:35.209Z,99625.53
2023-04-10T08:16:02.685Z,99623.59
2023-04-10T08:18:29.477Z,99630.41
2023-04-10T08:20:56.613Z,99634.09
2023-04-10T08:23:23.661Z,99635.81
2023-04-10T08:25:50.740Z,99628.50
2023-04-10T08:28:17.757Z,99620.09
2023-04-10T08:30:44.893Z,99621.34
2023-04-10T08:33:11.649Z,99619.41
2023-04-10T08:35:38.785Z,99621.56
2023-04-10T08:38:13.481Z,99625.16
2023-04-10T08:40:41.666Z,99625.06
2023-04-10T08:43:08.526Z,99619.56
2023-04-10T08:45:35.556Z,99618.47
2023-04-10T08:48:05.857Z,99613.75
2023-04-10T08:50:33.957Z,99618.94
2023-04-10T08:53:00.787Z,99619.78
2023-04-10T08:55:27.883Z,99623.03
2023-04-10T08:58:00.976Z,99627.50
2023-04-10T09:00:29.094Z,99622.75
2023-04-10T09:02:58.353Z,99618.09
2023-04-10T09:05:27.114Z,99622.34
2023-04-10T09:07:53.865Z,99628.50
2023-04-10T09:10:21.150Z,99633.81
2023-04-10T09:12:48.359Z,99632.63
2023-04-10T09:15:15.526Z,99635.31
2023-04-10T09:18:01.173Z,99635.53
2023-04-10T09:20:29.832Z,99633.69
2023-04-10T09:22:56.767Z,99630.81
2023-04-10T09:25:31.341Z,99628.59
2023-04-10T09:28:08.863Z,99624.91
2023-04-10T09:30:42.655Z,99629.34
2023-04-10T09:33:30.160Z,99628.38
2023-04-10T09:35:58.049Z,99629.13
2023-04-10T09:38:25.905Z,99625.34
2023-04-10T09:40:54.418Z,99623.53
2023-04-10T09:43:25.842Z,99625.44
2023-04-10T09:45:54.398Z,99615.44
2023-04-10T09:48:22.081Z,99617.03
2023-04-10T09:50:49.166Z,99609.50
2023-04-10T09:53:19.178Z,99613.72
2023-04-10T09:55:47.226Z,99606.47
2023-04-10T09:58:14.222Z,99603.66
2023-04-10T10:00:48.588Z,99600.75
2023-04-10T10:03:16.966Z,99601.50
2023-04-10T10:05:51.161Z,99593.41
2023-04-10T10:08:17.981Z,99595.81
2023-04-10T10:10:50.487Z,99592.78
2023-04-10T10:13:50.365Z,99582.84
2023-04-10T10:16:33.913Z,99580.88
2023-04-10T10:19:13.810Z,99582.53
2023-04-10T10:21:40.918Z,99579.47
2023-04-10T10:24:08.581Z,99565.09
2023-04-10T10:26:37.909Z,99581.84
2023-04-10T10:29:06.665Z,99576.13
2023-04-10T10:31:35.280Z,99577.00
2023-04-10T10:34:07.026Z,99567.72
2023-04-10T10:36:34.894Z,99561.19
2023-04-10T10:39:11.210Z,99567.47
2023-04-10T10:41:41.085Z,99566.28
2023-04-10T10:44:29.730Z,99556.97
2023-04-10T10:47:19.014Z,99559.47
2023-04-10T10:49:53.166Z,99559.25
2023-04-10T10:52:57.434Z,99564.53
2023-04-10T10:55:37.019Z,99558.81
2023-04-10T10:58:05.383Z,99553.19
2023-04-10T11:00:50.443Z,99553.81
2023-04-10T11:03:17.679Z,99560.09
2023-04-10T11:05:51.313Z,99551.88
2023-04-10T11:08:18.649Z,99550.66
2023-04-10T11:11:06.071Z,99546.13
2023-04-10T11:13:33.229Z,99547.50
2023-04-10T11:16:02.118Z,99541.13
2023-04-10T11:18:44.656Z,99539.06
2023-04-10T11:21:12.915Z,99536.03
2023-04-10T11:24:00.841Z,99536.78
2023-04-10T11:26:33.440Z,99534.69
2023-04-10T11:29:15.472Z,99527.31
2023-04-10T11:31:42.371Z,99526.34
2023-04-10T11:34:10.642Z,99515.44
2023-04-10T11:36:44.081Z,99518.78
2023-04-10T11:39:21.639Z,99507.88
2023-04-10T11:41:52.584Z,99515.88
2023-04-10T11:44:27.397Z,99515.75
2023-04-10T11:46:54.190Z,99514.66
2023-04-10T11:49:26.535Z,99514.53
2023-04-10T11:51:53.399Z,99518.88
2023-04-10T11:54:24.650Z,99514.06
2023-04-10T11:57:04.875Z,99508.56
2023-04-10T11:59:32.828Z,99506.47
2023-04-10T12:02:14.766Z,99500.06
2023-04-10T12:04:43.644Z,99495.31
2023-04-10T12:07:11.073Z,99496.78
2023-04-10T12:09:38.292Z,99491.25
2023-04-10T12:12:06.109Z,99493.84
2023-04-10T12:14:41.451Z,99487.47
2023-04-10T12:17:09.535Z,99484.63
2023-04-10T12:19:36.701Z,99484.28
2023-04-10T12:22:03.452Z,99476.16
2023-04-10T12:24:49.267Z,99473.94
2023-04-10T12:27:29.010Z,99463.00
2023-04-10T12:29:57.367Z,99461.03
2023-04-10T12:32:24.820Z,99458.31
2023-04-10T12:34:59.139Z,99453.41
2023-04-10T12:37:26.610Z,99449.84
2023-04-10T12:39:53.887Z,99450.69
2023-04-10T12:42:22.655Z,99449.63
2023-04-10T12:44:57.201Z,99450.34
2023-04-10T12:47:24.163Z,99448.25
2023-04-10T12:50:08.306Z,99447.91
2023-04-10T12:52:35.246Z,99431.41
2023-04-10T12:55:19.010Z,99428.34
2023-04-10T12:57:47.814Z,99430.56
2023-04-10T13:00:17.109Z,99422.31
2023-04-10T13:02:44.524Z,99421.09
2023-04-10T13:05:11.978Z,99426.28
2023-04-10T13:07:39.047Z,99420.59
2023-04-10T13:10:07.317Z,99416.06
2023-04-10T13:12:39.042Z,99413.84
2023-04-10T13:15:07.616Z,99400.66
2023-04-10T13:17:34.825Z,99402.22
2023-04-10T13:20:02.446Z,99395.59
2023-04-10T13:22:29.262Z,99388.84
2023-04-10T13:24:56.385Z,99387.50
2023-04-10T13:27:23.171Z,99388.09
2023-04-10T13:29:50.443Z,99380.44
2023-04-10T13:32:17.217Z,99380.06
2023-04-10T13:34:44.313Z,99383.25
2023-04-10T13:37:13.153Z,99373.03
2023-04-10T13:39:40.322Z,99366.59
2023-04-10T13:42:07.075Z,99365.13
2023-04-10T13:44:34.127Z,99373.84
2023-04-10T13:47:01.423Z,99368.03
2023-04-10T13:49:31.734Z,99357.94
2023-04-10T13:51:58.552Z,99360.09
2023-04-10T13:54:26.510Z,99355.31
2023-04-10T13:56:54.718Z,99349.47
2023-04-10T13:59:22.090Z,99339.06
2023-04-10T14:01:50.996Z,99335.25
2023-04-10T14:04:18.735Z,99332.16
2023-04-10T14:06:45.457Z,99333.34
2023-04-10T14:09:12.536Z,99331.22
2023-04-10T14:11:39.293Z,99330.13
2023-04-10T14:14:06.348Z,99329.56
2023-04-10T14:16:33.178Z,99327.03
2023-04-10T14:19:00.229Z,99331.22
2023-04-10T14:21:27.458Z,99332.72
2023-04-10T14:23:54.589Z,99330.88
2023-04-10T14:26:21.648Z,99318.75
2023-04-10T14:28:48.787Z,99317.59
2023-04-10T14:31:15.590Z,99312.16
2023-04-10T14:33:42.799Z,99313.88
2023-04-10T14:36:09.808Z,99304.63
2023-04-10T14:38:36.998Z,99303.75
2023-04-10T14:41:03.900Z,99304.06
2023-04-10T14:43:31.095Z,99303.22
2023-04-10T14:45:57.836Z,99300.09
2023-04-10T14:48:25.584Z,99297.53
2023-04-10T14:50:52.453Z,99290.22
2023-04-10T14:53:21.619Z,99282.22
2023-04-10T14:55:49.079Z,99281.94
2023-04-10T14:58:17.417Z,99278.13
2023-04-10T15:00:44.478Z,99286.25
2023-04-10T15:03:11.727Z,99280.69
2023-04-10T15:05:38.596Z,99287.25
2023-04-10T15:08:05.818Z,99271.09
2023-04-10T15:10:32.634Z,99272.22
2023-04-10T15:12:59.744Z,99272.38
2023-04-10T15:15:26.529Z,99269.50
2023-04-10T15:17:54.161Z,99268.38
2023-04-10T15:20:20.944Z,99258.34
2023-04-10T15:22:48.307Z,99250.94
2023-04-10T15:25:15.284Z,99254.81
2023-04-10T15:27:42.374Z,99247.66
2023-04-10T15:30:09.542Z,99246.69
2023-04-10T15:32:38.014Z,99245.09
2023-04-10T15:35:05.840Z,99240.94
2023-04-10T15:37:34.955Z,99238.22
2023-04-10T15:40:02.270Z,99236.09
2023-04-10T15:42:29.413Z,99243.97
2023-04-10T15:44:56.174Z,99238.41
2023-04-10T15:47:23.369Z,99242.97
2023-04-10T15:49:50.148Z,99238.13
2023-04-10T15:52:17.192Z,99240.09
2023-04-10T15:54:44.004Z,99247.53
2023-04-10T15:57:11.040Z,99242.81
2023-04-10T15:59:37.791Z,99233.53
2023-04-10T16:02:04.976Z,99234.09
2023-04-10T16:04:32.002Z,99233.81
2023-04-10T16:06:59.260Z,99227.81
2023-04-10T16:09:26.830Z,99228.66
2023-04-10T16:11:54.759Z,99226.50
2023-04-10T16:14:22.514Z,99227.66
2023-04-10T16:16:49.957Z,99213.94
2023-04-10T16:19:16.857Z,99212.34
2023-04-10T16:21:43.919Z,99211.50
2023-04-10T16:24:10.737Z,99206.06
2023-04-10T16:26:37.800Z,99214.50
2023-04-10T16:29:04.609Z,99203.91
2023-04-10T16:31:31.742Z,99211.06
2023-04-10T16:33:58.612Z,99209.31
2023-04-10T16:36:27.093Z,99202.34
2023-04-10T16:38:54.097Z,99197.75
2023-04-10T16:41:21.573Z,99201.63
2023-04-10T16:43:48.486Z,99201.88
2023-04-10T16:46:15.701Z,99193.88
2023-04-10T16:48:42.475Z,99193.16
2023-04-10T16:51:16.763Z,99199.72
2023-04-10T16:53:43.608Z,99199.72
2023-04-10T16:56:10.838Z,99195.13
2023-04-10T16:58:38.163Z,99189.69
2023-04-10T17:01:19.405Z,99197.13
2023-04-10T17:03:47.511Z,99198.28
2023-04-10T17:06:15.983Z,99194.97
2023-04-10T17:08:43.205Z,99202.25
2023-04-10T17:11:12.501Z,99199.91
2023-04-10T17:13:40.481Z,99210.06
2023-04-10T17:16:08.287Z,99199.47
2023-04-10T17:18:35.515Z,99207.88
2023-04-10T17:21:02.641Z,99204.56
2023-04-10T17:23:29.847Z,99206.00
2023-04-10T17:25:56.995Z,99209.69
2023-04-10T17:28:23.832Z,99211.81
2023-04-10T17:30:50.971Z,99205.09
2023-04-10T17:33:17.800Z,99210.91
2023-04-10T17:35:44.884Z,99208.31
2023-04-10T17:38:11.723Z,99213.28
2023-04-10T17:40:40.991Z,99208.13
2023-04-10T17:43:08.201Z,99208.53
2023-04-10T17:45:38.765Z,99205.47
2023-04-10T17:48:06.220Z,99198.34
2023-04-10T17:50:33.456Z,99205.78
2023-04-10T17:53:00.717Z,99202.31
2023-04-10T17:55:27.940Z,99199.88
2023-04-10T17:57:56.922Z,99195.72
2023-04-10T18:00:24.320Z,99202.41
2023-04-10T18:02:53.077Z,99204.38
2023-04-10T18:05:20.475Z,99200.66
2023-04-10T18:07:47.463Z,99208.34
2023-04-10T18:10:14.580Z,99211.19
2023-04-10T18:12:41.419Z,99207.63
2023-04-10T18:15:09.430Z,99211.56
2023-04-10T18:17:38.799Z,99211.69
2023-04-10T18:20:09.994Z,99212.50
2023-04-10T18:22:36.784Z,99210.75
2023-04-10T18:25:05.326Z,99209.06
2023-04-10T18:27:34.435Z,99207.19
2023-04-10T18:30:01.626Z,99208.31
2023-04-10T18:32:28.450Z,99207.59
2023-04-10T18:34:55.813Z,99196.16
2023-04-10T18:37:22.644Z,99193.84
2023-04-10T18:39:49.827Z,99187.31
2023-04-10T18:42:16.602Z,99183.88
2023-04-10T18:44:43.643Z,99183.03
2023-04-10T18:47:11.301Z,99173.16
2023-04-10T18:49:38.532Z,99168.78
2023-04-10T18:52:05.445Z,99163.63
2023-04-10T18:54:33.870Z,99161.16
2023-04-10T18:57:01.025Z,99156.47
2023-04-10T18:59:28.412Z,99156.84
2023-04-10T19:01:55.779Z,99163.53
2023-04-10T19:04:23.155Z,99160.09
2023-04-10T19:06:50.282Z,99162.69
2023-04-10T19:09:17.716Z,99168.34
2023-04-10T19:11:44.699Z,99168.13
2023-04-10T19:14:12.247Z,99166.50
2023-04-10T19:16:39.423Z,99174.50
2023-04-10T19:19:07.672Z,99167.75
2023-04-10T19:21:34.650Z,99172.94
2023-04-10T19:24:01.967Z,99167.75
2023-04-10T19:26:28.919Z,99162.97
2023-04-10T19:28:55.972Z,99168.50
2023-04-10T19:31:24.007Z,99166.31
2023-04-10T19:33:51.217Z,99158.94
2023-04-10T19:36:18.619Z,99158.09
2023-04-10T19:38:49.003Z,99155.03
2023-04-10T19:41:16.401Z,99151.84
2023-04-10T19:43:43.778Z,99146.53
2023-04-10T19:46:18.511Z,99146.19
2023-04-10T19:48:45.903Z,99137.31
2023-04-10T19:51:13.482Z,99137.44
2023-04-10T19:53:41.041Z,99133.88
2023-04-10T19:56:08.332Z,99129.94
2023-04-10T19:58:39.989Z,99130.31
2023-04-10T20:01:12.284Z,99132.91
2023-04-10T20:03:39.584Z,99131.69
2023-04-10T20:06:07.701Z,99126.41
2023-04-10T20:08:34.916Z,99125.78
2023-04-10T20:11:05.842Z,99132.06
2023-04-10T20:13:33.871Z,99122.09
2023-04-10T20:16:01.073Z,99118.00
2023-04-10T20:18:27.920Z,99120.47
2023-04-10T20:20:55.076Z,99122.31
2023-04-10T20:23:21.902Z,99117.03
2023-04-10T20:25:49.126Z,99120.22
2023-04-10T20:28:16.884Z,99118.00
2023-04-10T20:30:44.193Z,99115.78
2023-04-10T20:33:11.151Z,99110.66
2023-04-10T20:35:38.756Z,99107.56
2023-04-10T20:38:05.793Z,99106.97
2023-04-10T20:40:32.925Z,99107.31
2023-04-10T20:42:59.797Z,99109.13
2023-04-10T20:45:27.044Z,99097.59
2023-04-10T20:47:54.052Z,99097.56
2023-04-10T20:50:21.386Z,99097.34
2023-04-10T20:52:48.472Z,99094.03
2023-04-10T20:55:15.848Z,99095.16
2023-04-10T20:57:42.649Z,99092.06
2023-04-10T21:00:11.245Z,99100.91
2023-04-10T21:02:38.259Z,99091.19
2023-04-10T21:05:05.658Z,99095.97
2023-04-10T21:07:32.515Z,99092.41
2023-04-10T21:09:59.543Z,99098.19
2023-04-10T21:12:26.532Z,99091.69
2023-04-10T21:14:53.624Z,99104.44
2023-04-10T21:17:20.547Z,99107.75
2023-04-10T21:19:47.745Z,99113.00
2023-04-10T21:22:14.778Z,99105.00
2023-04-10T21:24:41.927Z,99100.84
2023-04-10T21:27:08.834Z,99098.38
2023-04-10T21:29:35.949Z,99100.06
2023-04-10T21:32:02.820Z,99106.47
2023-04-10T21:34:30.565Z,99100.44
2023-04-10T21:36:57.394Z,99097.63
2023-04-10T21:39:24.511Z,99095.16
2023-04-10T21:41:51.348Z,99089.25
2023-04-10T21:44:18.495Z,99087.66
2023-04-10T21:46:45.231Z,99082.47
2023-04-10T21:49:12.375Z,99072.56
2023-04-10T21:51:40.765Z,99066.28
2023-04-10T21:54:07.964Z,99059.16
2023-04-10T21:56:38.848Z,99057.44
2023-04-10T21:59:05.940Z,99053.38
2023-04-10T22:01:33.946Z,99050.78
2023-04-10T22:04:01.281Z,99049.38
2023-04-10T22:06:28.176Z,99034.28
2023-04-10T22:08:55.432Z,99028.28
2023-04-10T22:11:22.419Z,99025.47
2023-04-10T22:13:49.539Z,99032.06
2023-04-10T22:16:16.512Z,99027.50
2023-04-10T22:18:43.631Z,99021.38
2023-04-10T22:21:10.450Z,99010.81
2023-04-10T22:23:37.559Z,98999.63
2023-04-10T22:26:04.445Z,98998.53
2023-04-10T22:28:31.547Z,99004.41
2023-04-10T22:30:58.324Z,98998.72
2023-04-10T22:33:25.481Z,98998.72
2023-04-10T22:35:53.649Z,98990.13
2023-04-10T22:38:20.826Z,98984.72
2023-04-10T22:40:47.689Z,98981.91
2023-04-10T22:43:14.849Z,98980.09
2023-04-10T22:45:41.889Z,98980.66
2023-04-10T22:48:09.209Z,98978.44
2023-04-10T22:50:36.438Z,98979.94
2023-04-10T22:53:03.861Z,98975.84
2023-04-10T22:55:30.796Z,98965.66
2023-04-10T22:57:57.910Z,98959.31
2023-04-10T23:00:24.909Z,98956.84
2023-04-10T23:02:52.030Z,98947.84
2023-04-10T23:05:18.917Z,98938.78
2023-04-10T23:07:45.985Z,98937.19
2023-04-10T23:10:12.768Z,98932.16
2023-04-10T23:12:43.436Z,98933.84
2023-04-10T23:15:10.803Z,98923.31
2023-04-10T23:17:38.051Z,98912.00
2023-04-10T23:20:05.396Z,98911.28
2023-04-10T23:22:32.468Z,98907.94
2023-04-10T23:24:59.453Z,98907.09
2023-04-10T23:27:26.903Z,98903.75
2023-04-10T23:29:53.917Z,98905.72
2023-04-10T23:32:20.944Z,98897.72
2023-04-10T23:34:47.708Z,98908.88
2023-04-10T23:37:14.887Z,98901.97
2023-04-10T23:39:41.724Z,98894.53
2023-04-10T23:42:08.772Z,98897.44
2023-04-10T23:44:35.776Z,98888.72
2023-04-10T23:47:03.265Z,98885.75
2023-04-10T23:49:30.321Z,98886.63
2023-04-10T23:51:57.348Z,98889.06
2023-04-10T23:54:24.093Z,98871.66
2023-04-10T23:56:51.236Z,98870.91
2023-04-10T23:59:19.135Z,98868.22
